<?xml version="1.0" encoding="UTF-8" standalone="no" ?>
<gpx xmlns="http://www.topografix.com/GPX/1/1" xmlns:xsi="http://www.w3.org/2001/XMLSchema-instance" xsi:schemaLocation="http://www.topografix.com/GPX/1/1 http://www.topografix.com/GPX/1/1/gpx.xsd" version="1.1" creator="VisuGPX - https://www.visugpx.com">
  <metadata>
    <name>Chamechaude</name>
    <desc><![CDATA[Randonnée vers Chamechaude, du col de porte]]></desc>
  </metadata>
  <trk>
    <name><![CDATA[--Sarcenas-- OR-5822771:Chamechaude - Col de porte]]></name>
    <trkseg>
      <trkpt lat="45.28975" lon="5.76709">
        <ele>1319</ele>
        <time>2016-03-16T19:05:13Z</time>
      </trkpt>
      <trkpt lat="45.28869" lon="5.76832">
        <ele>1331</ele>
        <time>2016-03-16T19:07:13Z</time>
      </trkpt>
      <trkpt lat="45.28863" lon="5.76907">
        <ele>1335</ele>
        <time>2016-03-16T19:09:13Z</time>
      </trkpt>
      <trkpt lat="45.28798" lon="5.77143">
        <ele>1363</ele>
        <time>2016-03-16T19:11:13Z</time>
      </trkpt>
      <trkpt lat="45.28831" lon="5.77256">
        <ele>1380</ele>
        <time>2016-03-16T19:13:13Z</time>
      </trkpt>
      <trkpt lat="45.29026" lon="5.7745">
        <ele>1428</ele>
        <time>2016-03-16T19:15:13Z</time>
      </trkpt>
      <trkpt lat="45.29125" lon="5.77662">
        <ele>1465</ele>
        <time>2016-03-16T19:17:13Z</time>
      </trkpt>
      <trkpt lat="45.29032" lon="5.77668">
        <ele>1491</ele>
        <time>2016-03-16T19:19:13Z</time>
      </trkpt>
      <trkpt lat="45.28861" lon="5.77658">
        <ele>1501</ele>
        <time>2016-03-16T19:21:13Z</time>
      </trkpt>
      <trkpt lat="45.28808" lon="5.77731">
        <ele>1528</ele>
        <time>2016-03-16T19:23:13Z</time>
      </trkpt>
      <trkpt lat="45.28674" lon="5.77769">
        <ele>1545</ele>
        <time>2016-03-16T19:25:13Z</time>
      </trkpt>
      <trkpt lat="45.2878" lon="5.77829">
        <ele>1576</ele>
        <time>2016-03-16T19:27:13Z</time>
      </trkpt>
      <trkpt lat="45.28668" lon="5.77855">
        <ele>1589</ele>
        <time>2016-03-16T19:29:13Z</time>
      </trkpt>
      <trkpt lat="45.28641" lon="5.77889">
        <ele>1605</ele>
        <time>2016-03-16T19:31:13Z</time>
      </trkpt>
      <trkpt lat="45.28588" lon="5.77965">
        <ele>1641</ele>
        <time>2016-03-16T19:33:13Z</time>
      </trkpt>
      <trkpt lat="45.28606" lon="5.78014">
        <ele>1662</ele>
        <time>2016-03-16T19:35:13Z</time>
      </trkpt>
      <trkpt lat="45.28701" lon="5.78018">
        <ele>1661</ele>
        <time>2016-03-16T19:37:13Z</time>
      </trkpt>
      <trkpt lat="45.2861" lon="5.78104">
        <ele>1708</ele>
        <time>2016-03-16T19:39:13Z</time>
      </trkpt>
      <trkpt lat="45.28716" lon="5.78134">
        <ele>1714</ele>
        <time>2016-03-16T19:41:13Z</time>
      </trkpt>
      <trkpt lat="45.28677" lon="5.78188">
        <ele>1741</ele>
        <time>2016-03-16T19:43:13Z</time>
      </trkpt>
      <trkpt lat="45.28644" lon="5.78205">
        <ele>1756</ele>
        <time>2016-03-16T19:45:13Z</time>
      </trkpt>
      <trkpt lat="45.28678" lon="5.78237">
        <ele>1768</ele>
        <time>2016-03-16T19:47:13Z</time>
      </trkpt>
      <trkpt lat="45.2876" lon="5.78319">
        <ele>1804</ele>
        <time>2016-03-16T19:49:13Z</time>
      </trkpt>
      <trkpt lat="45.28796" lon="5.78372">
        <ele>1831</ele>
        <time>2016-03-16T19:51:13Z</time>
      </trkpt>
      <trkpt lat="45.28785" lon="5.78388">
        <ele>1842</ele>
        <time>2016-03-16T19:53:13Z</time>
      </trkpt>
      <trkpt lat="45.28783" lon="5.78412">
        <ele>1857</ele>
        <time>2016-03-16T19:55:13Z</time>
      </trkpt>
      <trkpt lat="45.28774" lon="5.78428">
        <ele>1868</ele>
        <time>2016-03-16T19:57:13Z</time>
      </trkpt>
      <trkpt lat="45.2878" lon="5.78462">
        <ele>1891</ele>
        <time>2016-03-16T19:59:13Z</time>
      </trkpt>
      <trkpt lat="45.28797" lon="5.78478">
        <ele>1904</ele>
        <time>2016-03-16T20:01:13Z</time>
      </trkpt>
      <trkpt lat="45.28797" lon="5.78524">
        <ele>1934</ele>
        <time>2016-03-16T20:03:13Z</time>
      </trkpt>
      <trkpt lat="45.28832" lon="5.78541">
        <ele>1947</ele>
        <time>2016-03-16T20:05:13Z</time>
      </trkpt>
      <trkpt lat="45.28832" lon="5.78579">
        <ele>1967</ele>
        <time>2016-03-16T20:07:13Z</time>
      </trkpt>
      <trkpt lat="45.28817" lon="5.7864">
        <ele>1996</ele>
        <time>2016-03-16T20:09:13Z</time>
      </trkpt>
      <trkpt lat="45.28766" lon="5.78652">
        <ele>2002</ele>
        <time>2016-03-16T20:11:13Z</time>
      </trkpt>
      <trkpt lat="45.2877" lon="5.78686">
        <ele>2021</ele>
        <time>2016-03-16T20:13:13Z</time>
      </trkpt>
      <trkpt lat="45.28767" lon="5.7873">
        <ele>2046</ele>
        <time>2016-03-16T20:15:13Z</time>
      </trkpt>
      <trkpt lat="45.28784" lon="5.78791">
        <ele>2039</ele>
        <time>2016-03-16T20:17:13Z</time>
      </trkpt>
      <trkpt lat="45.28761" lon="5.78819">
        <ele>2026</ele>
        <time>2016-03-16T20:19:13Z</time>
      </trkpt>
      <trkpt lat="45.28785" lon="5.78792">
        <ele>2039</ele>
        <time>2016-03-16T20:21:13Z</time>
      </trkpt>
      <trkpt lat="45.28768" lon="5.78731">
        <ele>2046</ele>
        <time>2016-03-16T20:23:13Z</time>
      </trkpt>
      <trkpt lat="45.28771" lon="5.78687">
        <ele>2022</ele>
        <time>2016-03-16T20:25:13Z</time>
      </trkpt>
      <trkpt lat="45.28767" lon="5.78653">
        <ele>2003</ele>
        <time>2016-03-16T20:27:13Z</time>
      </trkpt>
      <trkpt lat="45.28818" lon="5.78641">
        <ele>1997</ele>
        <time>2016-03-16T20:29:13Z</time>
      </trkpt>
      <trkpt lat="45.28833" lon="5.7858">
        <ele>1967</ele>
        <time>2016-03-16T20:31:13Z</time>
      </trkpt>
      <trkpt lat="45.28833" lon="5.78542">
        <ele>1948</ele>
        <time>2016-03-16T20:33:13Z</time>
      </trkpt>
      <trkpt lat="45.28798" lon="5.78525">
        <ele>1934</ele>
        <time>2016-03-16T20:35:13Z</time>
      </trkpt>
      <trkpt lat="45.28798" lon="5.78479">
        <ele>1905</ele>
        <time>2016-03-16T20:37:13Z</time>
      </trkpt>
      <trkpt lat="45.28781" lon="5.78463">
        <ele>1892</ele>
        <time>2016-03-16T20:39:13Z</time>
      </trkpt>
      <trkpt lat="45.28775" lon="5.78429">
        <ele>1868</ele>
        <time>2016-03-16T20:41:13Z</time>
      </trkpt>
      <trkpt lat="45.28784" lon="5.78413">
        <ele>1858</ele>
        <time>2016-03-16T20:43:13Z</time>
      </trkpt>
      <trkpt lat="45.28786" lon="5.78389">
        <ele>1842</ele>
        <time>2016-03-16T20:45:13Z</time>
      </trkpt>
      <trkpt lat="45.28797" lon="5.78373">
        <ele>1831</ele>
        <time>2016-03-16T20:47:13Z</time>
      </trkpt>
      <trkpt lat="45.28761" lon="5.7832">
        <ele>1804</ele>
        <time>2016-03-16T20:49:13Z</time>
      </trkpt>
      <trkpt lat="45.28679" lon="5.78238">
        <ele>1768</ele>
        <time>2016-03-16T20:51:13Z</time>
      </trkpt>
      <trkpt lat="45.28645" lon="5.78206">
        <ele>1756</ele>
        <time>2016-03-16T20:53:13Z</time>
      </trkpt>
      <trkpt lat="45.28678" lon="5.78189">
        <ele>1741</ele>
        <time>2016-03-16T20:55:13Z</time>
      </trkpt>
      <trkpt lat="45.28717" lon="5.78135">
        <ele>1714</ele>
        <time>2016-03-16T20:57:13Z</time>
      </trkpt>
      <trkpt lat="45.28611" lon="5.78105">
        <ele>1708</ele>
        <time>2016-03-16T20:59:13Z</time>
      </trkpt>
      <trkpt lat="45.28702" lon="5.78019">
        <ele>1661</ele>
        <time>2016-03-16T21:01:13Z</time>
      </trkpt>
      <trkpt lat="45.28607" lon="5.78015">
        <ele>1662</ele>
        <time>2016-03-16T21:03:13Z</time>
      </trkpt>
      <trkpt lat="45.28589" lon="5.77966">
        <ele>1642</ele>
        <time>2016-03-16T21:05:13Z</time>
      </trkpt>
      <trkpt lat="45.28642" lon="5.7789">
        <ele>1606</ele>
        <time>2016-03-16T21:07:13Z</time>
      </trkpt>
      <trkpt lat="45.28669" lon="5.77856">
        <ele>1590</ele>
        <time>2016-03-16T21:09:13Z</time>
      </trkpt>
      <trkpt lat="45.28781" lon="5.7783">
        <ele>1576</ele>
        <time>2016-03-16T21:11:13Z</time>
      </trkpt>
      <trkpt lat="45.28675" lon="5.7777">
        <ele>1546</ele>
        <time>2016-03-16T21:13:13Z</time>
      </trkpt>
      <trkpt lat="45.28809" lon="5.77732">
        <ele>1528</ele>
        <time>2016-03-16T21:15:13Z</time>
      </trkpt>
      <trkpt lat="45.28862" lon="5.77659">
        <ele>1502</ele>
        <time>2016-03-16T21:17:13Z</time>
      </trkpt>
      <trkpt lat="45.29033" lon="5.77669">
        <ele>1491</ele>
        <time>2016-03-16T21:19:13Z</time>
      </trkpt>
      <trkpt lat="45.29126" lon="5.77663">
        <ele>1465</ele>
        <time>2016-03-16T21:21:13Z</time>
      </trkpt>
      <trkpt lat="45.29027" lon="5.77451">
        <ele>1428</ele>
        <time>2016-03-16T21:23:13Z</time>
      </trkpt>
      <trkpt lat="45.28832" lon="5.77257">
        <ele>1380</ele>
        <time>2016-03-16T21:25:13Z</time>
      </trkpt>
      <trkpt lat="45.28799" lon="5.77144">
        <ele>1363</ele>
        <time>2016-03-16T21:27:13Z</time>
      </trkpt>
      <trkpt lat="45.28864" lon="5.76908">
        <ele>1335</ele>
        <time>2016-03-16T21:29:13Z</time>
      </trkpt>
      <trkpt lat="45.2887" lon="5.76833">
        <ele>1331</ele>
        <time>2016-03-16T21:31:13Z</time>
      </trkpt>
      <trkpt lat="45.28976" lon="5.7671">
        <ele>1319</ele>
        <time>2016-03-16T21:33:13Z</time>
      </trkpt>
    </trkseg>
  </trk>
</gpx>